createdAt,value
2019-05-17T00:01:38.609Z,99463.03
2019-05-17T00:04:10.472Z,99464.12
2019-05-17T00:06:43.162Z,99458.73
2019-05-17T00:09:14.879Z,99450.11
2019-05-17T00:11:47.301Z,99449.91
2019-05-17T00:14:20.165Z,99454.98
2019-05-17T00:16:51.927Z,99447.58
2019-05-17T00:19:26.178Z,99447.58
2019-05-17T00:21:57.484Z,99443.03
2019-05-17T00:24:29.347Z,99450.08
2019-05-17T00:27:01.214Z,99452.33
2019-05-17T00:29:33.067Z,99452.13
2019-05-17T00:32:06.396Z,99453.48
2019-05-17T00:34:38.217Z,99449.02
2019-05-17T00:37:10.098Z,99443.19
2019-05-17T00:39:42.039Z,99442.78
2019-05-17T00:42:13.752Z,99446.36
2019-05-17T00:44:47.409Z,99450.38
2019-05-17T00:47:18.956Z,99445.51
2019-05-17T00:49:50.606Z,99451.47
2019-05-17T00:52:22.468Z,99447.00
2019-05-17T00:54:56.278Z,99447.65
2019-05-17T00:57:27.514Z,99451.67
2019-05-17T00:59:59.483Z,99448.97
2019-05-17T01:02:31.117Z,99450.61
2019-05-17T01:05:03.215Z,99443.05
2019-05-17T01:07:37.409Z,99436.00
2019-05-17T01:10:09.279Z,99434.39
2019-05-17T01:12:40.875Z,99435.45
2019-05-17T01:15:13.447Z,99432.86
2019-05-17T01:17:47.149Z,99427.79
2019-05-17T01:20:18.317Z,99437.64
2019-05-17T01:22:49.944Z,99428.64
2019-05-17T01:25:21.970Z,99424.86
2019-05-17T01:27:53.829Z,99420.63
2019-05-17T01:30:26.643Z,99416.64
2019-05-17T01:32:58.400Z,99422.27
2019-05-17T01:35:30.232Z,99424.33
2019-05-17T01:38:02.188Z,99422.16
2019-05-17T01:40:33.748Z,99417.61
2019-05-17T01:43:07.826Z,99413.39
2019-05-17T01:45:39.735Z,99422.80
2019-05-17T01:48:11.678Z,99414.94
2019-05-17T01:50:43.539Z,99411.98
2019-05-17T01:53:16.639Z,99416.88
2019-05-17T01:55:48.387Z,99413.77
2019-05-17T01:58:20.142Z,99411.48
2019-05-17T02:00:52.772Z,99410.50
2019-05-17T02:03:26.631Z,99411.03
2019-05-17T02:05:57.671Z,99416.81
2019-05-17T02:08:29.832Z,99415.61
2019-05-17T02:11:01.635Z,99420.16
2019-05-17T02:13:33.101Z,99418.45
2019-05-17T02:16:07.000Z,99411.17
2019-05-17T02:18:38.394Z,99410.00
2019-05-17T02:21:10.405Z,99403.05
2019-05-17T02:23:42.135Z,99405.87
2019-05-17T02:26:14.176Z,99400.36
2019-05-17T02:28:46.144Z,99403.61
2019-05-17T02:31:17.800Z,99405.34
2019-05-17T02:33:49.880Z,99401.12
2019-05-17T02:36:22.848Z,99402.52
2019-05-17T02:38:54.567Z,99400.05
2019-05-17T02:41:26.289Z,99406.01
2019-05-17T02:43:58.131Z,99398.83
2019-05-17T02:46:29.791Z,99398.28
2019-05-17T02:49:03.047Z,99401.23
2019-05-17T02:51:34.537Z,99406.09
2019-05-17T02:54:06.175Z,99410.21
2019-05-17T02:56:38.209Z,99408.48
2019-05-17T02:59:13.371Z,99415.39
2019-05-17T03:01:44.499Z,99407.89
2019-05-17T03:04:16.278Z,99403.03
2019-05-17T03:06:47.895Z,99400.22
2019-05-17T03:09:22.641Z,99403.12
2019-05-17T03:11:56.959Z,99408.84
2019-05-17T03:14:26.691Z,99416.55
2019-05-17T03:16:58.410Z,99418.38
2019-05-17T03:19:32.798Z,99426.41
2019-05-17T03:22:07.852Z,99419.58
2019-05-17T03:24:38.342Z,99429.52
2019-05-17T03:27:13.492Z,99426.15
2019-05-17T03:29:43.688Z,99426.47
2019-05-17T03:32:17.572Z,99424.38
2019-05-17T03:34:55.888Z,99423.67
2019-05-17T03:37:29.957Z,99422.06
2019-05-17T03:39:57.677Z,99431.63
2019-05-17T03:42:29.649Z,99435.38
2019-05-17T03:45:02.889Z,99448.67
2019-05-17T03:47:35.021Z,99442.47
2019-05-17T03:50:07.077Z,99446.22
2019-05-17T03:52:38.513Z,99446.98
2019-05-17T03:55:13.190Z,99447.30
2019-05-17T03:57:45.038Z,99449.63
2019-05-17T04:00:18.084Z,99448.30
2019-05-17T04:02:49.639Z,99459.97
2019-05-17T04:05:22.717Z,99460.06
2019-05-17T04:07:54.699Z,99464.72
2019-05-17T04:10:26.676Z,99465.56
2019-05-17T04:12:58.533Z,99467.94
2019-05-17T04:15:32.901Z,99469.10
2019-05-17T04:18:04.544Z,99466.93
2019-05-17T04:20:37.267Z,99470.18
2019-05-17T04:23:09.026Z,99468.97
2019-05-17T04:25:43.491Z,99473.43
2019-05-17T04:28:14.189Z,99475.17
2019-05-17T04:30:47.083Z,99471.09
2019-05-17T04:33:18.524Z,99468.84
2019-05-17T04:35:49.991Z,99470.64
2019-05-17T04:38:23.581Z,99471.55
2019-05-17T04:40:55.016Z,99467.06
2019-05-17T04:43:26.797Z,99468.47
2019-05-17T04:45:58.429Z,99472.25
2019-05-17T04:48:32.647Z,99471.09
2019-05-17T04:51:03.322Z,99474.87
2019-05-17T04:53:34.966Z,99472.70
2019-05-17T04:56:06.893Z,99477.11
2019-05-17T04:58:38.545Z,99470.95
2019-05-17T05:01:12.977Z,99468.66
2019-05-17T05:03:43.668Z,99472.83
2019-05-17T05:06:15.255Z,99465.52
2019-05-17T05:08:46.940Z,99464.20
2019-05-17T05:11:18.767Z,99461.80
2019-05-17T05:13:53.133Z,99467.27
2019-05-17T05:16:24.439Z,99467.58
2019-05-17T05:18:56.293Z,99468.54
2019-05-17T05:21:32.358Z,99480.61
2019-05-17T05:24:04.118Z,99485.41
2019-05-17T05:26:36.072Z,99482.53
2019-05-17T05:29:07.735Z,99482.27
2019-05-17T05:31:39.694Z,99481.44
2019-05-17T05:34:12.342Z,99483.34
2019-05-17T05:36:43.909Z,99489.06
2019-05-17T05:39:15.374Z,99482.41
2019-05-17T05:41:47.335Z,99481.69
2019-05-17T05:44:21.426Z,99486.22
2019-05-17T05:46:52.796Z,99481.69
2019-05-17T05:49:25.531Z,99493.62
2019-05-17T05:51:57.737Z,99489.51
2019-05-17T05:54:29.206Z,99487.53
2019-05-17T05:57:02.327Z,99490.96
2019-05-17T05:59:35.510Z,99486.84
2019-05-17T06:02:07.159Z,99494.59
2019-05-17T06:04:39.091Z,99497.42
2019-05-17T06:07:12.910Z,99497.07
2019-05-17T06:09:44.493Z,99501.39
2019-05-17T06:12:23.791Z,99494.16
2019-05-17T06:14:49.396Z,99497.56
2019-05-17T06:17:21.619Z,99490.90
2019-05-17T06:19:53.344Z,99489.88
2019-05-17T06:22:24.773Z,99494.17
2019-05-17T06:24:56.530Z,99494.92
2019-05-17T06:27:28.494Z,99503.69
2019-05-17T06:30:01.469Z,99499.73
2019-05-17T06:32:33.235Z,99501.62
2019-05-17T06:35:05.554Z,99503.22
2019-05-17T06:37:37.158Z,99503.33
2019-05-17T06:40:09.427Z,99507.75
2019-05-17T06:42:44.980Z,99502.27
2019-05-17T06:45:15.197Z,99507.28
2019-05-17T06:47:47.067Z,99505.10
2019-05-17T06:50:18.814Z,99501.25
2019-05-17T06:52:53.112Z,99500.20
2019-05-17T06:55:24.371Z,99503.30
2019-05-17T06:57:55.932Z,99498.48
2019-05-17T07:00:29.886Z,99501.62
2019-05-17T07:03:01.935Z,99502.11
2019-05-17T07:05:35.418Z,99495.64
2019-05-17T07:08:06.849Z,99493.22
2019-05-17T07:10:40.022Z,99505.60
2019-05-17T07:13:11.826Z,99500.90
2019-05-17T07:15:47.610Z,99501.86
2019-05-17T07:18:19.280Z,99503.59
2019-05-17T07:20:50.388Z,99503.81
2019-05-17T07:23:22.022Z,99507.47
2019-05-17T07:25:53.717Z,99512.50
2019-05-17T07:28:25.518Z,99507.66
2019-05-17T07:30:59.465Z,99511.42
2019-05-17T07:33:30.732Z,99497.32
2019-05-17T07:36:02.692Z,99505.34
2019-05-17T07:38:34.032Z,99505.34
2019-05-17T07:41:05.549Z,99507.09
2019-05-17T07:43:37.395Z,99507.84
2019-05-17T07:46:09.676Z,99514.31
2019-05-17T07:48:41.341Z,99513.98
2019-05-17T07:51:13.285Z,99508.28
2019-05-17T07:53:45.349Z,99513.40
2019-05-17T07:56:17.037Z,99503.19
2019-05-17T07:58:49.492Z,99500.67
2019-05-17T08:01:23.182Z,99506.44
2019-05-17T08:03:55.200Z,99508.59
2019-05-17T08:06:26.904Z,99509.63
2019-05-17T08:09:03.945Z,99504.04
2019-05-17T08:11:32.068Z,99508.58
2019-05-17T08:14:03.918Z,99513.45
2019-05-17T08:16:35.782Z,99506.04
2019-05-17T08:19:09.597Z,99505.75
2019-05-17T08:21:40.886Z,99506.30
2019-05-17T08:24:13.405Z,99506.19
2019-05-17T08:26:45.262Z,99513.69
2019-05-17T08:29:16.979Z,99501.94
2019-05-17T08:31:49.727Z,99498.97
2019-05-17T08:34:21.254Z,99498.98
2019-05-17T08:36:53.007Z,99498.03
2019-05-17T08:39:24.681Z,99500.13
2019-05-17T08:41:56.429Z,99501.38
2019-05-17T08:44:29.887Z,99499.05
2019-05-17T08:47:01.470Z,99502.62
2019-05-17T08:49:33.537Z,99495.64
2019-05-17T08:52:05.283Z,99508.50
2019-05-17T08:54:40.533Z,99501.88
2019-05-17T08:57:10.388Z,99493.95
2019-05-17T08:59:41.914Z,99493.39
2019-05-17T09:02:13.864Z,99490.01
2019-05-17T09:04:45.724Z,99494.09
2019-05-17T09:07:20.196Z,99498.02
2019-05-17T09:09:51.196Z,99497.84
2019-05-17T09:12:22.940Z,99502.89
2019-05-17T09:14:54.492Z,99503.65
2019-05-17T09:17:26.250Z,99494.27
2019-05-17T09:20:00.463Z,99493.45
2019-05-17T09:22:31.610Z,99497.11
2019-05-17T09:25:03.505Z,99503.14
2019-05-17T09:27:35.026Z,99497.63
2019-05-17T09:30:09.462Z,99487.55
2019-05-17T09:32:41.089Z,99489.51
2019-05-17T09:35:13.059Z,99485.48
2019-05-17T09:37:45.015Z,99486.21
2019-05-17T09:40:16.985Z,99488.03
2019-05-17T09:42:49.952Z,99488.91
2019-05-17T09:45:21.826Z,99486.96
2019-05-17T09:47:53.585Z,99485.45
2019-05-17T09:50:25.298Z,99491.09
2019-05-17T09:52:57.125Z,99482.09
2019-05-17T09:55:30.069Z,99488.03
2019-05-17T09:58:01.634Z,99479.78
2019-05-17T10:00:33.965Z,99484.70
2019-05-17T10:03:05.617Z,99478.26
2019-05-17T10:05:40.305Z,99477.24
2019-05-17T10:08:11.181Z,99481.88
2019-05-17T10:10:43.088Z,99479.06
2019-05-17T10:13:14.855Z,99480.98
2019-05-17T10:15:46.809Z,99475.81
2019-05-17T10:18:20.040Z,99472.44
2019-05-17T10:20:51.548Z,99471.20
2019-05-17T10:23:23.132Z,99468.34
2019-05-17T10:25:54.967Z,99465.98
2019-05-17T10:28:26.621Z,99462.69
2019-05-17T10:31:02.061Z,99464.66
2019-05-17T10:33:31.367Z,99452.69
2019-05-17T10:36:03.123Z,99456.34
2019-05-17T10:38:34.888Z,99462.75
2019-05-17T10:41:06.588Z,99458.94
2019-05-17T10:43:39.245Z,99455.22
2019-05-17T10:46:10.876Z,99453.72
2019-05-17T10:48:42.627Z,99451.84
2019-05-17T10:51:14.399Z,99447.72
2019-05-17T10:53:46.148Z,99459.33
2019-05-17T10:56:19.930Z,99447.89
2019-05-17T10:58:51.036Z,99448.27
2019-05-17T11:01:22.749Z,99448.06
2019-05-17T11:03:54.408Z,99448.31
2019-05-17T11:06:25.849Z,99445.77
2019-05-17T11:08:59.511Z,99440.22
2019-05-17T11:11:30.696Z,99440.17
2019-05-17T11:14:02.565Z,99439.20
2019-05-17T11:16:33.952Z,99438.38
2019-05-17T11:19:08.652Z,99442.75
2019-05-17T11:21:38.855Z,99432.88
2019-05-17T11:24:10.405Z,99429.73
2019-05-17T11:26:41.792Z,99426.90
2019-05-17T11:29:13.517Z,99425.17
2019-05-17T11:31:45.169Z,99425.17
2019-05-17T11:34:17.095Z,99417.77
2019-05-17T11:36:49.027Z,99425.61
2019-05-17T11:39:20.851Z,99431.32
2019-05-17T11:41:52.520Z,99422.48
2019-05-17T11:44:24.429Z,99427.91
2019-05-17T11:46:56.045Z,99426.89
2019-05-17T11:49:27.896Z,99428.59
2019-05-17T11:51:59.844Z,99430.22
2019-05-17T11:54:31.401Z,99426.84
2019-05-17T11:57:03.263Z,99424.85
2019-05-17T11:59:35.059Z,99428.54
2019-05-17T12:02:07.607Z,99421.94
2019-05-17T12:04:39.157Z,99430.56
2019-05-17T12:07:10.558Z,99430.09
2019-05-17T12:09:43.399Z,99432.48
2019-05-17T12:12:15.077Z,99428.95
2019-05-17T12:14:46.920Z,99423.48
2019-05-17T12:17:18.337Z,99423.08
2019-05-17T12:19:50.303Z,99419.00
2019-05-17T12:22:22.083Z,99426.42
2019-05-17T12:24:53.637Z,99421.04
2019-05-17T12:27:25.317Z,99423.97
2019-05-17T12:29:57.174Z,99419.27
2019-05-17T12:32:28.678Z,99419.14
2019-05-17T12:35:00.562Z,99425.21
2019-05-17T12:37:32.428Z,99422.20
2019-05-17T12:40:05.376Z,99422.41
2019-05-17T12:42:36.838Z,99416.77
2019-05-17T12:45:09.244Z,99418.12
2019-05-17T12:47:40.721Z,99416.02
2019-05-17T12:50:12.847Z,99412.62
2019-05-17T12:52:44.379Z,99411.58
2019-05-17T12:55:16.449Z,99408.46
2019-05-17T12:57:48.325Z,99407.42
2019-05-17T13:00:20.597Z,99405.69
2019-05-17T13:02:52.090Z,99403.27
2019-05-17T13:05:23.594Z,99400.38
2019-05-17T13:07:55.342Z,99405.11
2019-05-17T13:10:26.906Z,99404.98
2019-05-17T13:12:58.645Z,99401.31
2019-05-17T13:15:30.140Z,99397.38
2019-05-17T13:18:01.756Z,99400.09
2019-05-17T13:20:33.398Z,99402.48
2019-05-17T13:23:05.290Z,99394.45
2019-05-17T13:25:36.756Z,99391.47
2019-05-17T13:28:08.397Z,99397.45
2019-05-17T13:30:40.347Z,99391.25
2019-05-17T13:33:12.006Z,99393.29
2019-05-17T13:35:43.924Z,99382.25
2019-05-17T13:38:15.588Z,99388.85
2019-05-17T13:40:47.269Z,99383.27
2019-05-17T13:43:18.949Z,99384.25
2019-05-17T13:45:50.697Z,99378.98
2019-05-17T13:48:22.230Z,99371.86
2019-05-17T13:50:53.928Z,99377.31
2019-05-17T13:53:25.611Z,99370.04
2019-05-17T13:55:57.513Z,99368.89
2019-05-17T13:58:29.076Z,99370.91
2019-05-17T14:01:01.283Z,99366.30
2019-05-17T14:03:34.429Z,99366.34
2019-05-17T14:06:06.094Z,99362.97
2019-05-17T14:08:37.823Z,99358.13
2019-05-17T14:11:09.433Z,99353.92
2019-05-17T14:13:42.463Z,99352.16
2019-05-17T14:16:14.428Z,99356.04
2019-05-17T14:18:46.418Z,99356.39
2019-05-17T14:21:18.172Z,99355.09
2019-05-17T14:23:49.903Z,99353.73
2019-05-17T14:26:21.421Z,99350.24
2019-05-17T14:28:53.193Z,99351.74
2019-05-17T14:31:25.051Z,99355.62
2019-05-17T14:33:56.937Z,99352.22
2019-05-17T14:36:30.236Z,99346.58
2019-05-17T14:39:02.333Z,99341.68
2019-05-17T14:41:35.608Z,99347.05
2019-05-17T14:44:07.042Z,99345.62
2019-05-17T14:46:38.899Z,99338.27
2019-05-17T14:49:10.764Z,99343.98
2019-05-17T14:51:42.326Z,99330.37
2019-05-17T14:54:14.063Z,99334.17
2019-05-17T14:56:45.814Z,99330.58
2019-05-17T14:59:17.705Z,99321.73
2019-05-17T15:01:49.944Z,99321.61
2019-05-17T15:04:21.813Z,99320.98
2019-05-17T15:06:53.851Z,99324.38
2019-05-17T15:09:25.332Z,99321.26
2019-05-17T15:11:58.585Z,99320.37
2019-05-17T15:14:30.103Z,99315.91
2019-05-17T15:17:03.095Z,99313.59
2019-05-17T15:19:35.431Z,99315.55
2019-05-17T15:22:07.208Z,99309.44
2019-05-17T15:24:39.159Z,99308.95
2019-05-17T15:27:10.631Z,99305.21
2019-05-17T15:29:42.463Z,99302.30
2019-05-17T15:32:14.141Z,99302.55
2019-05-17T15:34:45.913Z,99301.82
2019-05-17T15:37:17.534Z,99289.70
2019-05-17T15:39:48.981Z,99292.64
2019-05-17T15:42:20.658Z,99298.67
2019-05-17T15:44:52.390Z,99293.02
2019-05-17T15:47:24.418Z,99289.35
2019-05-17T15:49:56.418Z,99289.03
2019-05-17T15:52:28.187Z,99290.11
2019-05-17T15:54:59.829Z,99296.88
2019-05-17T15:57:31.521Z,99293.47
2019-05-17T16:00:03.650Z,99288.44
2019-05-17T16:02:36.539Z,99293.23
2019-05-17T16:05:08.993Z,99294.09
2019-05-17T16:07:40.476Z,99299.27
2019-05-17T16:10:13.187Z,99292.33
2019-05-17T16:13:00.852Z,99296.61
2019-05-17T16:15:18.243Z,99289.17
2019-05-17T16:17:50.015Z,99293.11
2019-05-17T16:20:22.751Z,99294.53
2019-05-17T16:22:55.036Z,99291.60
2019-05-17T16:25:26.792Z,99293.02
2019-05-17T16:27:58.724Z,99297.91
2019-05-17T16:30:30.192Z,99296.25
2019-05-17T16:33:01.953Z,99302.34
2019-05-17T16:35:33.488Z,99297.11
2019-05-17T16:38:05.241Z,99296.16
2019-05-17T16:40:37.148Z,99296.22
2019-05-17T16:43:17.778Z,99294.66
2019-05-17T16:45:42.255Z,99292.19
2019-05-17T16:48:14.117Z,99285.50
2019-05-17T16:50:46.065Z,99293.99
2019-05-17T16:53:18.348Z,99287.25
2019-05-17T16:55:50.006Z,99289.58
2019-05-17T16:58:22.707Z,99295.66
2019-05-17T17:00:54.342Z,99294.38
2019-05-17T17:03:34.815Z,99295.94
2019-05-17T17:06:00.145Z,99296.52
2019-05-17T17:08:32.372Z,99295.17
2019-05-17T17:11:03.861Z,99299.66
2019-05-17T17:13:35.595Z,99298.38
2019-05-17T17:16:07.349Z,99298.76
2019-05-17T17:18:38.902Z,99292.23
2019-05-17T17:21:10.555Z,99296.62
2019-05-17T17:23:42.366Z,99289.81
2019-05-17T17:26:14.034Z,99286.13
2019-05-17T17:28:45.515Z,99288.02
2019-05-17T17:31:17.428Z,99292.03
2019-05-17T17:33:49.176Z,99290.67
2019-05-17T17:36:20.900Z,99290.19
2019-05-17T17:38:52.958Z,99291.61
2019-05-17T17:41:26.630Z,99292.25
2019-05-17T17:43:59.303Z,99293.52
2019-05-17T17:46:31.048Z,99295.45
2019-05-17T17:49:02.998Z,99296.47
2019-05-17T17:51:34.649Z,99291.54
2019-05-17T17:54:06.980Z,99293.27
2019-05-17T17:56:38.839Z,99294.63
2019-05-17T17:59:10.927Z,99302.25
2019-05-17T18:01:42.791Z,99288.91
2019-05-17T18:04:14.674Z,99296.27
2019-05-17T18:06:46.394Z,99301.13
2019-05-17T18:09:19.195Z,99306.21
2019-05-17T18:11:50.822Z,99305.08
2019-05-17T18:14:22.585Z,99305.23
2019-05-17T18:16:54.033Z,99307.86
2019-05-17T18:19:25.823Z,99298.14
2019-05-17T18:21:57.564Z,99298.48
2019-05-17T18:24:29.108Z,99304.11
2019-05-17T18:27:01.087Z,99302.53
2019-05-17T18:29:32.921Z,99302.30
2019-05-17T18:32:04.878Z,99297.38
2019-05-17T18:34:36.392Z,99295.38
2019-05-17T18:37:08.245Z,99296.89
2019-05-17T18:39:39.973Z,99296.14
2019-05-17T18:42:11.404Z,99293.56
2019-05-17T18:44:43.053Z,99293.22
2019-05-17T18:47:14.734Z,99296.91
2019-05-17T18:49:46.874Z,99295.31
2019-05-17T18:52:18.735Z,99299.25
2019-05-17T18:54:50.332Z,99303.34
2019-05-17T18:57:22.044Z,99293.91
2019-05-17T18:59:54.754Z,99299.17
2019-05-17T19:02:26.591Z,99299.73
2019-05-17T19:04:57.974Z,99298.65
2019-05-17T19:07:29.503Z,99296.21
2019-05-17T19:10:01.301Z,99291.30
2019-05-17T19:12:33.000Z,99290.70
2019-05-17T19:15:10.502Z,99292.45
2019-05-17T19:17:42.045Z,99297.38
2019-05-17T19:20:13.939Z,99297.38
2019-05-17T19:22:45.534Z,99293.22
2019-05-17T19:25:17.466Z,99297.70
2019-05-17T19:27:49.008Z,99297.20
2019-05-17T19:30:20.856Z,99305.05
2019-05-17T19:32:53.614Z,99298.36
2019-05-17T19:35:26.093Z,99302.17
2019-05-17T19:37:57.811Z,99304.58
2019-05-17T19:40:29.708Z,99309.75
2019-05-17T19:43:01.464Z,99313.93
2019-05-17T19:45:33.424Z,99313.73
2019-05-17T19:48:05.115Z,99321.75
2019-05-17T19:50:36.764Z,99314.97
2019-05-17T19:53:08.632Z,99314.75
2019-05-17T19:55:40.524Z,99317.16
2019-05-17T19:58:12.114Z,99315.58
2019-05-17T20:00:44.077Z,99315.09
2019-05-17T20:03:15.727Z,99316.77
2019-05-17T20:05:47.468Z,99318.52
2019-05-17T20:08:19.350Z,99325.33
2019-05-17T20:10:52.142Z,99328.20
2019-05-17T20:13:23.663Z,99316.70
2019-05-17T20:15:55.142Z,99327.27
2019-05-17T20:18:26.710Z,99329.00
2019-05-17T20:20:58.554Z,99332.28
2019-05-17T20:23:30.514Z,99335.53
2019-05-17T20:26:02.241Z,99337.36
2019-05-17T20:28:33.847Z,99341.20
2019-05-17T20:31:05.703Z,99336.41
2019-05-17T20:33:37.353Z,99344.66
2019-05-17T20:36:09.039Z,99341.55
2019-05-17T20:38:40.866Z,99338.44
2019-05-17T20:41:12.423Z,99340.09
2019-05-17T20:43:44.064Z,99342.83
2019-05-17T20:46:15.933Z,99350.70
2019-05-17T20:48:47.423Z,99340.54
2019-05-17T20:51:18.923Z,99344.58
2019-05-17T20:53:50.801Z,99341.37
2019-05-17T20:56:32.287Z,99338.92
2019-05-17T20:58:56.557Z,99336.50
2019-05-17T21:01:28.630Z,99332.15
2019-05-17T21:04:00.679Z,99334.73
2019-05-17T21:06:32.438Z,99334.45
2019-05-17T21:09:05.317Z,99337.69
2019-05-17T21:11:36.797Z,99329.92
2019-05-17T21:14:08.523Z,99333.27
2019-05-17T21:16:40.405Z,99332.99
2019-05-17T21:19:11.958Z,99334.75
2019-05-17T21:21:43.741Z,99334.68
2019-05-17T21:24:15.557Z,99332.23
2019-05-17T21:26:47.108Z,99336.98
2019-05-17T21:29:18.886Z,99327.08
2019-05-17T21:31:50.766Z,99323.69
2019-05-17T21:34:22.304Z,99320.78
2019-05-17T21:36:54.011Z,99314.56
2019-05-17T21:39:25.450Z,99317.33
2019-05-17T21:41:57.107Z,99316.02
2019-05-17T21:44:28.908Z,99314.27
2019-05-17T21:47:04.558Z,99310.02
2019-05-17T21:49:33.860Z,99308.13
2019-05-17T21:52:06.018Z,99310.28
2019-05-17T21:54:37.776Z,99307.20
2019-05-17T21:57:09.328Z,99312.51
2019-05-17T21:59:41.079Z,99314.76
2019-05-17T22:02:13.152Z,99308.27
2019-05-17T22:04:45.116Z,99308.92
2019-05-17T22:07:16.886Z,99308.09
2019-05-17T22:09:48.620Z,99307.51
2019-05-17T22:12:20.426Z,99309.00
2019-05-17T22:14:52.034Z,99307.99
2019-05-17T22:17:23.708Z,99304.33
2019-05-17T22:19:55.477Z,99306.50
2019-05-17T22:22:27.109Z,99298.31
2019-05-17T22:24:58.963Z,99301.07
2019-05-17T22:27:30.416Z,99289.26
2019-05-17T22:30:02.094Z,99290.75
2019-05-17T22:32:33.951Z,99291.17
2019-05-17T22:35:06.724Z,99292.84
2019-05-17T22:37:38.552Z,99298.03
2019-05-17T22:40:10.043Z,99301.70
2019-05-17T22:42:41.686Z,99291.08
2019-05-17T22:45:13.874Z,99298.91
2019-05-17T22:47:45.466Z,99301.72
2019-05-17T22:50:17.166Z,99294.19
2019-05-17T22:52:49.017Z,99289.66
2019-05-17T22:55:20.789Z,99286.76
2019-05-17T22:57:52.485Z,99290.81
2019-05-17T23:00:24.315Z,99288.08
2019-05-17T23:02:55.861Z,99288.73
2019-05-17T23:05:27.598Z,99275.55
2019-05-17T23:07:59.379Z,99283.73
2019-05-17T23:10:34.894Z,99287.31
2019-05-17T23:13:05.022Z,99284.30
2019-05-17T23:15:38.105Z,99287.22
2019-05-17T23:18:09.601Z,99289.21
2019-05-17T23:20:41.109Z,99288.17
2019-05-17T23:23:15.489Z,99288.91
2019-05-17T23:25:46.372Z,99284.85
2019-05-17T23:28:19.384Z,99281.67
2019-05-17T23:30:51.226Z,99278.28
2019-05-17T23:33:22.976Z,99276.47
2019-05-17T23:35:54.732Z,99271.07
2019-05-17T23:38:26.595Z,99273.00
2019-05-17T23:40:58.477Z,99272.95
2019-05-17T23:43:31.352Z,99274.36
2019-05-17T23:46:03.110Z,99268.98
2019-05-17T23:48:35.195Z,99280.52
2019-05-17T23:51:06.615Z,99282.45
2019-05-17T23:53:38.485Z,99278.80
2019-05-17T23:56:10.237Z,99275.30
2019-05-17T23:58:42.108Z,99280.94
